createdAt,value
2022-11-24T08:06:40.957Z,94.59
2022-11-24T08:07:36.949Z,93.87
2022-11-24T08:08:35.835Z,93.98
2022-11-24T08:09:35.828Z,93.98
2022-11-24T08:10:35.821Z,93.98
2022-11-24T08:11:35.843Z,93.98
2022-11-24T08:12:35.798Z,93.87
2022-11-24T08:13:35.790Z,93.98
2022-11-24T08:14:36.071Z,93.12
2022-11-24T08:15:35.766Z,93.01
2022-11-24T08:16:35.866Z,93.26
2022-11-24T08:17:35.760Z,93.01
2022-11-24T08:18:35.715Z,92.95
2022-11-24T08:19:35.710Z,92.85
2022-11-24T08:20:35.693Z,92.64
2022-11-24T08:21:35.718Z,92.80
2022-11-24T08:22:35.691Z,92.91
2022-11-24T08:23:35.678Z,92.29
2022-11-24T08:24:36.014Z,92.60
2022-11-24T08:25:35.663Z,92.50
2022-11-24T08:26:35.645Z,92.60
2022-11-24T08:27:35.649Z,92.70
2022-11-24T08:28:35.602Z,92.70
2022-11-24T08:29:35.615Z,92.60
2022-11-24T08:30:35.619Z,91.99
2022-11-24T08:31:35.668Z,91.47
2022-11-24T08:32:35.583Z,91.99
2022-11-24T08:33:35.554Z,91.67
2022-11-24T08:34:35.817Z,91.88
2022-11-24T08:35:35.528Z,91.78
2022-11-24T08:36:35.517Z,91.67
2022-11-24T08:37:35.522Z,91.84
2022-11-24T08:38:35.530Z,91.78
2022-11-24T08:39:35.484Z,91.99
2022-11-24T08:40:35.478Z,91.84
2022-11-24T08:41:35.528Z,91.94
2022-11-24T08:42:36.353Z,91.53
2022-11-24T08:43:35.444Z,91.63
2022-11-24T08:44:35.970Z,90.95
2022-11-24T08:45:39.872Z,90.71
2022-11-24T08:46:36.469Z,91.02
2022-11-24T08:47:35.392Z,91.02
2022-11-24T08:48:35.395Z,91.02
2022-11-24T08:49:35.384Z,90.09
2022-11-24T08:50:35.358Z,90.20
2022-11-24T08:51:35.421Z,90.36
2022-11-24T08:52:35.342Z,89.64
2022-11-24T08:53:35.337Z,89.54
2022-11-24T08:54:35.623Z,89.75
2022-11-24T08:55:35.301Z,89.43
2022-11-24T08:56:35.284Z,90.05
2022-11-24T08:57:35.304Z,89.95
2022-11-24T08:58:35.477Z,90.56
2022-11-24T08:59:35.308Z,90.62
2022-11-24T09:00:35.240Z,89.70
2022-11-24T09:01:35.332Z,90.11
2022-11-24T09:02:35.231Z,90.62
2022-11-24T09:03:35.237Z,90.32
2022-11-24T09:04:35.605Z,90.52
2022-11-24T09:05:52.510Z,89.84
2022-11-24T09:06:36.192Z,89.70
2022-11-24T09:07:35.211Z,89.60
2022-11-24T09:08:35.177Z,89.56
2022-11-24T09:09:35.154Z,90.42
2022-11-24T09:10:35.163Z,89.90
2022-11-24T09:11:35.213Z,89.60
2022-11-24T09:12:35.108Z,89.25
2022-11-24T09:13:35.107Z,89.25
2022-11-24T09:14:35.377Z,89.76
2022-11-24T09:15:35.085Z,89.66
2022-11-24T09:16:35.148Z,89.72
2022-11-24T09:17:35.067Z,90.17
2022-11-24T09:18:35.051Z,89.56
2022-11-24T09:19:35.346Z,89.76
2022-11-24T09:20:35.045Z,90.23
2022-11-24T09:21:35.142Z,90.23
2022-11-24T09:22:34.992Z,89.83
2022-11-24T09:23:35.011Z,89.83
2022-11-24T09:24:34.978Z,90.13
2022-11-24T09:25:34.959Z,89.47
2022-11-24T09:26:34.995Z,89.17
2022-11-24T09:27:34.937Z,89.11
2022-11-24T09:28:34.948Z,89.06
2022-11-24T09:29:35.235Z,89.27
2022-11-24T09:30:34.973Z,88.35
2022-11-24T09:31:35.001Z,88.80
2022-11-24T09:32:34.875Z,88.18
2022-11-24T09:33:34.874Z,88.24
2022-11-24T09:34:34.879Z,88.65
2022-11-24T09:35:34.859Z,89.17
2022-11-24T09:36:34.836Z,88.65
2022-11-24T09:37:34.843Z,88.24
2022-11-24T09:38:34.813Z,88.04
2022-11-24T09:39:35.204Z,87.94
2022-11-24T09:40:34.787Z,88.24
2022-11-24T09:41:34.789Z,88.00
2022-11-24T09:42:34.783Z,87.38
2022-11-24T09:43:34.778Z,87.79
2022-11-24T09:44:34.752Z,87.18
2022-11-24T09:46:03.347Z,87.08
2022-11-24T09:46:35.819Z,87.08
2022-11-24T09:47:34.722Z,86.98
2022-11-24T09:48:34.706Z,87.18
2022-11-24T09:49:35.140Z,86.83
2022-11-24T09:50:34.683Z,86.53
2022-11-24T09:51:34.673Z,85.81
2022-11-24T09:52:34.664Z,85.91
2022-11-24T09:53:34.685Z,85.50
2022-11-24T09:54:34.623Z,85.50
2022-11-24T09:55:34.630Z,85.67
2022-11-24T09:56:34.603Z,85.63
2022-11-24T09:57:37.414Z,84.06
2022-11-24T09:58:34.615Z,84.77
2022-11-24T09:59:34.780Z,83.71
2022-11-24T10:00:34.554Z,82.14
2022-11-24T10:01:34.722Z,82.86
2022-11-24T10:02:34.547Z,81.80
2022-11-24T10:03:34.553Z,81.76
2022-11-24T10:04:34.581Z,81.96
2022-11-24T10:05:34.508Z,81.25
2022-11-24T10:06:34.504Z,81.45
2022-11-24T10:07:34.586Z,80.91
2022-11-24T10:08:34.464Z,80.80
2022-11-24T10:09:34.773Z,80.60
2022-11-24T10:10:34.454Z,79.95
2022-11-24T10:11:34.434Z,78.42
2022-11-24T10:12:34.421Z,78.63
2022-11-24T10:13:34.416Z,79.03
2022-11-24T10:14:34.438Z,79.00
2022-11-24T10:15:34.507Z,79.06
2022-11-24T10:16:34.456Z,78.31
2022-11-24T10:17:34.369Z,76.07
2022-11-24T10:18:34.357Z,76.89
2022-11-24T10:19:37.801Z,75.37
2022-11-24T10:20:34.342Z,75.26
2022-11-24T10:21:34.336Z,76.18
2022-11-24T10:22:34.307Z,76.86
2022-11-24T10:23:39.466Z,76.01
2022-11-24T10:24:35.421Z,75.09
2022-11-24T10:25:34.277Z,73.77
2022-11-24T10:26:34.262Z,72.96
2022-11-24T10:27:34.248Z,73.06
2022-11-24T10:28:34.248Z,73.57
2022-11-24T10:29:34.796Z,73.16
2022-11-24T10:30:34.245Z,73.74
2022-11-24T10:31:34.384Z,73.53
2022-11-24T10:32:34.213Z,73.09
2022-11-24T10:33:34.211Z,72.89
2022-11-24T10:34:34.193Z,72.31
2022-11-24T10:35:34.186Z,71.80
2022-11-24T10:36:34.150Z,69.88
2022-11-24T10:37:34.141Z,70.48
2022-11-24T10:38:34.128Z,71.16
2022-11-24T10:39:34.559Z,70.69
2022-11-24T10:40:56.636Z,70.86
2022-11-24T10:41:35.094Z,71.16
2022-11-24T10:42:34.104Z,70.93
2022-11-24T10:43:34.089Z,69.81
2022-11-24T10:44:34.075Z,69.98
2022-11-24T10:45:34.044Z,70.08
2022-11-24T10:46:39.158Z,69.54
2022-11-24T10:47:35.035Z,68.70
2022-11-24T10:48:34.032Z,69.14
2022-11-24T10:49:34.535Z,68.10
2022-11-24T10:50:33.991Z,67.42
2022-11-24T10:51:34.534Z,68.66
2022-11-24T10:52:33.992Z,67.76
2022-11-24T10:53:33.994Z,67.51
2022-11-24T10:54:33.962Z,68.87
2022-11-24T10:55:33.948Z,69.91
2022-11-24T10:56:33.929Z,69.30
2022-11-24T10:57:33.911Z,69.88
2022-11-24T10:58:37.664Z,71.00
2022-11-24T10:59:34.330Z,71.09
2022-11-24T11:00:33.896Z,71.16
2022-11-24T11:01:33.904Z,70.25
2022-11-24T11:02:34.068Z,70.62
2022-11-24T11:03:33.857Z,70.32
2022-11-24T11:04:33.872Z,69.17
2022-11-24T11:05:33.840Z,69.68
2022-11-24T11:06:33.837Z,68.63
2022-11-24T11:07:33.897Z,68.63
2022-11-24T11:08:33.805Z,67.69
2022-11-24T11:09:35.134Z,68.60
2022-11-24T11:10:33.783Z,66.55
2022-11-24T11:11:33.776Z,65.16
2022-11-24T11:12:44.025Z,66.24
2022-11-24T11:13:34.745Z,66.35
2022-11-24T11:14:33.736Z,66.41
2022-11-24T11:15:33.734Z,65.40
2022-11-24T11:16:33.700Z,66.08
2022-11-24T11:17:33.685Z,64.87
2022-11-24T11:18:33.722Z,65.47
2022-11-24T11:19:48.289Z,64.76
2022-11-24T11:20:34.657Z,64.49
2022-11-24T11:21:33.649Z,65.13
2022-11-24T11:22:33.635Z,66.17
2022-11-24T11:23:33.614Z,65.47
2022-11-24T11:24:33.631Z,66.17
2022-11-24T11:25:33.611Z,65.84
2022-11-24T11:26:33.596Z,65.84
2022-11-24T11:27:33.585Z,66.72
2022-11-24T11:28:33.576Z,66.21
2022-11-24T11:31:34.680Z,65.00
2022-11-24T11:34:34.538Z,64.59
2022-11-24T11:35:33.487Z,64.70
2022-11-24T11:36:33.499Z,65.70
2022-11-24T11:37:33.452Z,66.61
2022-11-24T11:38:33.446Z,65.78
2022-11-24T11:39:33.516Z,65.20
2022-11-24T11:40:33.438Z,65.50
2022-11-24T11:41:33.408Z,65.40
2022-11-24T11:43:03.253Z,64.62
2022-11-24T11:43:34.382Z,65.33
2022-11-24T11:44:33.937Z,64.83
2022-11-24T11:45:33.445Z,66.24
2022-11-24T11:46:33.433Z,65.70
2022-11-24T11:47:33.345Z,66.11
2022-11-24T11:48:42.316Z,65.17
2022-11-24T11:49:34.326Z,64.19
2022-11-24T11:50:47.498Z,63.99
2022-11-24T11:51:34.399Z,65.03
2022-11-24T11:52:33.283Z,65.70
2022-11-24T11:53:33.295Z,65.20
2022-11-24T11:54:33.474Z,64.79
2022-11-24T11:55:33.260Z,64.59
2022-11-24T11:56:33.252Z,64.90
2022-11-24T11:57:33.234Z,63.01
2022-11-24T11:58:33.216Z,63.64
2022-11-24T11:59:33.228Z,64.35
2022-11-24T12:00:33.192Z,65.19
2022-11-24T12:01:33.176Z,66.17
2022-11-24T12:02:33.290Z,65.43
2022-11-24T12:03:33.304Z,64.25
2022-11-24T12:04:33.582Z,64.86
2022-11-24T12:05:33.141Z,65.06
2022-11-24T12:06:33.152Z,64.93
2022-11-24T12:07:33.201Z,65.03
2022-11-24T12:08:49.479Z,64.49
2022-11-24T12:09:34.495Z,64.56
2022-11-24T12:10:33.100Z,64.16
2022-11-24T12:11:33.066Z,63.42
2022-11-24T12:12:33.065Z,62.71
2022-11-24T12:13:33.037Z,62.31
2022-11-24T12:14:33.580Z,62.31
2022-11-24T12:15:33.050Z,62.31
2022-11-24T12:16:33.048Z,62.31
2022-11-24T12:17:32.992Z,62.71
2022-11-24T12:18:56.578Z,62.51
2022-11-24T12:19:34.184Z,62.08
2022-11-24T12:20:32.978Z,62.28
2022-11-24T12:21:32.960Z,61.27
2022-11-24T12:22:32.966Z,61.71
2022-11-24T12:23:32.931Z,62.18
2022-11-24T12:24:32.941Z,61.71
2022-11-24T12:25:33.092Z,62.11
2022-11-24T12:26:32.916Z,62.04
2022-11-24T12:27:32.876Z,62.74
2022-11-24T12:28:32.868Z,63.38
2022-11-24T12:29:33.115Z,63.76
2022-11-24T12:30:32.876Z,63.32
2022-11-24T12:31:32.894Z,62.71
2022-11-24T12:32:32.837Z,62.79
2022-11-24T12:33:32.824Z,61.27
2022-11-24T12:34:32.812Z,60.87
2022-11-24T12:35:32.799Z,61.17
2022-11-24T12:36:32.798Z,61.14
2022-11-24T12:37:32.767Z,61.44
2022-11-24T12:38:32.781Z,59.83
2022-11-24T12:39:33.223Z,60.03
2022-11-24T12:40:32.765Z,60.06
2022-11-24T12:41:42.207Z,61.07
2022-11-24T12:42:33.724Z,61.07
2022-11-24T12:43:32.714Z,61.04
2022-11-24T12:44:32.698Z,60.94
2022-11-24T12:45:32.687Z,60.74
2022-11-24T12:46:32.697Z,59.86
2022-11-24T12:47:32.648Z,59.96
2022-11-24T12:48:32.649Z,61.14
2022-11-24T12:49:32.946Z,61.14
2022-11-24T12:50:32.633Z,61.11
2022-11-24T12:51:32.616Z,59.97
2022-11-24T12:52:32.602Z,59.37
2022-11-24T12:53:32.594Z,59.47
2022-11-24T12:54:32.592Z,60.17
2022-11-24T12:55:32.578Z,58.94
2022-11-24T12:56:32.557Z,58.74
2022-11-24T12:57:32.560Z,58.51
2022-11-24T12:58:33.128Z,57.68
2022-11-24T12:59:33.110Z,58.03
2022-11-24T13:00:32.519Z,57.76
2022-11-24T13:01:32.646Z,59.17
2022-11-24T13:02:32.588Z,58.16
2022-11-24T13:03:32.517Z,58.36
2022-11-24T13:04:32.856Z,57.86
2022-11-24T13:05:32.454Z,57.86
2022-11-24T13:06:32.631Z,58.56
2022-11-24T13:07:32.470Z,60.17
2022-11-24T13:08:32.430Z,59.77
2022-11-24T13:09:32.408Z,57.83
2022-11-24T13:10:54.950Z,57.81
2022-11-24T13:11:33.391Z,58.51
2022-11-24T13:12:32.373Z,58.28
2022-11-24T13:13:32.372Z,57.28
2022-11-24T13:14:32.929Z,57.17
2022-11-24T13:15:45.777Z,57.70
2022-11-24T13:16:48.246Z,57.50
2022-11-24T13:17:47.491Z,57.68
2022-11-24T13:18:33.342Z,57.40
2022-11-24T13:19:32.299Z,56.70
2022-11-24T13:20:32.281Z,57.12
2022-11-24T13:21:32.290Z,57.40
2022-11-24T13:22:32.263Z,57.81
2022-11-24T13:23:32.240Z,58.11
2022-11-24T13:24:32.541Z,57.88
2022-11-24T13:25:32.232Z,56.67
2022-11-24T13:26:32.930Z,57.98
2022-11-24T13:27:32.199Z,55.87
2022-11-24T13:29:00.440Z,57.10
2022-11-24T13:29:33.174Z,55.89
2022-11-24T13:30:32.180Z,57.50
2022-11-24T13:31:32.225Z,57.60
2022-11-24T13:32:32.144Z,56.92
2022-11-24T13:33:32.144Z,57.05
2022-11-24T13:34:32.540Z,57.48
2022-11-24T13:35:32.109Z,57.68
2022-11-24T13:36:32.114Z,57.68
2022-11-24T13:37:35.834Z,58.34
2022-11-24T13:38:32.094Z,57.87
2022-11-24T13:39:35.997Z,58.98
2022-11-24T13:40:33.067Z,59.84
2022-11-24T13:41:32.204Z,59.77
2022-11-24T13:42:41.626Z,60.03
2022-11-24T13:43:33.027Z,60.33
2022-11-24T13:44:32.211Z,61.27
2022-11-24T13:45:31.996Z,61.78
2022-11-24T13:46:32.080Z,62.41
2022-11-24T13:47:31.982Z,62.72
2022-11-24T13:48:31.974Z,63.23
2022-11-24T13:49:31.945Z,63.96
2022-11-24T13:50:31.950Z,63.73
2022-11-24T13:51:31.944Z,63.63
2022-11-24T13:52:31.916Z,63.32
2022-11-24T13:53:31.903Z,63.53
2022-11-24T13:54:32.041Z,63.32
2022-11-24T13:55:31.908Z,64.14
2022-11-24T13:56:31.902Z,64.24
2022-11-24T13:57:31.866Z,64.44
2022-11-24T13:58:31.958Z,64.11
2022-11-24T13:59:31.844Z,63.60
2022-11-24T14:00:31.828Z,63.12
2022-11-24T14:01:31.933Z,63.53
2022-11-24T14:02:31.824Z,63.63
2022-11-24T14:03:31.785Z,63.73
2022-11-24T14:04:33.138Z,64.14
2022-11-24T14:05:31.774Z,63.02
2022-11-24T14:06:31.780Z,63.63
2022-11-24T14:07:31.827Z,63.96
2022-11-24T14:08:31.742Z,63.26
2022-11-24T14:09:31.727Z,63.89
2022-11-24T14:10:31.720Z,63.69
2022-11-24T14:11:31.701Z,64.64
2022-11-24T14:12:31.682Z,65.45
2022-11-24T14:13:31.681Z,65.37
2022-11-24T14:14:31.695Z,65.27
2022-11-24T14:15:31.659Z,65.68
2022-11-24T14:16:31.710Z,66.02
2022-11-24T14:17:31.674Z,66.42
2022-11-24T14:18:31.620Z,66.63
2022-11-24T14:19:32.377Z,66.15
2022-11-24T14:20:31.608Z,66.72
2022-11-24T14:21:31.580Z,66.55
2022-11-24T14:22:31.602Z,67.36
2022-11-24T14:23:31.572Z,67.16
2022-11-24T14:24:33.474Z,67.27
2022-11-24T14:25:31.560Z,67.30
2022-11-24T14:26:31.538Z,68.11
2022-11-24T14:27:31.550Z,68.35
2022-11-24T14:28:31.560Z,68.62
2022-11-24T14:29:31.495Z,68.72
2022-11-24T14:30:31.549Z,68.75
2022-11-24T14:31:31.512Z,68.65
2022-11-24T14:32:31.485Z,68.85
2022-11-24T14:33:31.457Z,68.88
2022-11-24T14:34:31.519Z,69.29
2022-11-24T14:35:31.549Z,69.40
2022-11-24T14:36:31.425Z,70.10
2022-11-24T14:37:31.410Z,70.21
2022-11-24T14:38:31.389Z,70.31
2022-11-24T14:39:31.393Z,70.34
2022-11-24T14:40:31.375Z,70.75
2022-11-24T14:41:31.363Z,70.65
2022-11-24T14:42:31.371Z,70.65
2022-11-24T14:43:31.346Z,71.06
2022-11-24T14:44:31.316Z,71.06
2022-11-24T14:45:31.338Z,71.26
2022-11-24T14:46:31.380Z,71.06
2022-11-24T14:47:32.440Z,70.99
2022-11-24T14:48:31.288Z,71.30
2022-11-24T14:49:31.272Z,71.60
2022-11-24T14:50:31.305Z,71.60
2022-11-24T14:51:31.253Z,71.39
2022-11-24T14:52:31.256Z,71.70
2022-11-24T14:53:31.231Z,71.91
2022-11-24T14:54:31.220Z,71.60
2022-11-24T14:55:31.223Z,71.80
2022-11-24T14:56:31.198Z,71.63
2022-11-24T14:57:31.189Z,72.04
2022-11-24T14:58:31.170Z,72.55
2022-11-24T14:59:31.163Z,72.04
2022-11-24T15:00:31.376Z,72.86
2022-11-24T15:01:31.261Z,71.97
2022-11-24T15:02:31.229Z,72.34
2022-11-24T15:03:31.119Z,72.96
2022-11-24T15:05:32.094Z,72.69
2022-11-24T15:06:31.083Z,72.69
2022-11-24T15:07:31.152Z,72.89
2022-11-24T15:08:31.050Z,72.99
2022-11-24T15:09:31.102Z,72.08
2022-11-24T15:10:33.765Z,72.48
2022-11-24T15:11:31.026Z,72.69
2022-11-24T15:12:31.009Z,72.72
2022-11-24T15:13:31.009Z,72.52
2022-11-24T15:14:31.069Z,72.92
2022-11-24T15:15:30.983Z,73.03
2022-11-24T15:16:31.039Z,72.62
2022-11-24T15:17:30.960Z,72.72
2022-11-24T15:18:30.954Z,72.82
2022-11-24T15:19:30.922Z,72.82
2022-11-24T15:20:30.920Z,72.82
2022-11-24T15:21:30.913Z,73.33
2022-11-24T15:22:30.901Z,73.43
2022-11-24T15:23:30.877Z,74.08
2022-11-24T15:24:30.878Z,74.05
2022-11-24T15:25:30.868Z,73.67
2022-11-24T15:26:34.237Z,73.77
2022-11-24T15:27:31.869Z,73.88
2022-11-24T15:28:30.816Z,74.18
2022-11-24T15:29:30.826Z,73.88
2022-11-24T15:30:30.794Z,74.49
2022-11-24T15:31:30.853Z,74.52
2022-11-24T15:32:30.783Z,74.83
2022-11-24T15:33:30.786Z,74.93
2022-11-24T15:34:30.786Z,74.83
2022-11-24T15:35:30.749Z,75.44
2022-11-24T15:36:30.733Z,75.13
2022-11-24T15:37:34.141Z,75.34
2022-11-24T15:38:30.734Z,75.24
2022-11-24T15:39:30.694Z,75.44
2022-11-24T15:40:30.705Z,75.24
2022-11-24T15:41:30.683Z,75.54
2022-11-24T15:42:30.671Z,75.58
2022-11-24T15:43:30.649Z,75.48
2022-11-24T15:44:30.634Z,75.48
2022-11-24T15:45:30.639Z,75.78
2022-11-24T15:46:30.742Z,75.68
2022-11-24T15:47:30.622Z,75.58
2022-11-24T15:48:30.602Z,75.58
2022-11-24T15:49:30.595Z,75.68
2022-11-24T15:50:30.619Z,75.58
2022-11-24T15:51:30.574Z,75.68
2022-11-24T15:52:30.555Z,75.92
2022-11-24T15:53:30.549Z,75.78
2022-11-24T15:54:30.533Z,75.62
2022-11-24T15:55:30.526Z,76.23
2022-11-24T15:56:30.498Z,75.82
2022-11-24T15:57:30.509Z,76.03
2022-11-24T15:58:30.478Z,76.33
2022-11-24T15:59:30.475Z,76.43
2022-11-24T16:00:30.454Z,77.25
2022-11-24T16:01:30.578Z,76.33
2022-11-24T16:02:30.494Z,76.23
2022-11-24T16:03:48.030Z,77.15
2022-11-24T16:04:31.407Z,77.15
2022-11-24T16:05:30.419Z,77.25
2022-11-24T16:06:30.419Z,76.53
2022-11-24T16:07:30.414Z,76.33
2022-11-24T16:08:30.395Z,77.08
2022-11-24T16:09:30.350Z,76.67
2022-11-24T16:10:30.354Z,76.67
2022-11-24T16:11:30.345Z,76.84
2022-11-24T16:12:30.330Z,76.57
2022-11-24T16:13:31.195Z,76.88
2022-11-24T16:14:30.361Z,76.57
2022-11-24T16:15:30.294Z,76.67
2022-11-24T16:16:30.311Z,76.64
2022-11-24T16:17:30.265Z,76.67
2022-11-24T16:18:30.258Z,77.39
2022-11-24T16:19:30.258Z,77.49
2022-11-24T16:20:30.238Z,77.39
2022-11-24T16:21:30.233Z,77.12
2022-11-24T16:22:30.245Z,77.29
2022-11-24T16:23:30.209Z,77.08
2022-11-24T16:24:30.200Z,77.29
2022-11-24T16:25:30.188Z,77.49
2022-11-24T16:26:30.159Z,78.04
2022-11-24T16:27:30.167Z,77.73
2022-11-24T16:28:30.161Z,77.94
2022-11-24T16:29:34.009Z,78.04
2022-11-24T16:30:31.110Z,78.24
2022-11-24T16:31:30.172Z,78.34
2022-11-24T16:32:30.106Z,78.34
2022-11-24T16:33:30.113Z,78.04
2022-11-24T16:34:30.066Z,77.73
2022-11-24T16:35:30.074Z,77.97
2022-11-24T16:36:30.058Z,77.63
2022-11-24T16:37:30.050Z,77.73
2022-11-24T16:38:30.055Z,77.94
2022-11-24T16:39:30.026Z,78.04
2022-11-24T16:40:30.012Z,77.94
2022-11-24T16:41:30.070Z,77.42
2022-11-24T16:42:29.974Z,77.73
2022-11-24T16:43:29.994Z,77.42
2022-11-24T16:44:30.017Z,77.63
2022-11-24T16:45:29.993Z,77.32
2022-11-24T16:46:30.009Z,77.32
2022-11-24T16:47:29.937Z,77.32
2022-11-24T16:48:29.936Z,77.94
2022-11-24T16:49:29.915Z,77.83
2022-11-24T16:50:29.899Z,77.94
2022-11-24T16:51:34.461Z,78.14
2022-11-24T16:52:30.868Z,77.97
2022-11-24T16:53:29.882Z,77.97
2022-11-24T16:54:29.872Z,78.17
2022-11-24T16:55:29.849Z,78.38
2022-11-24T16:56:29.831Z,78.69
2022-11-24T16:57:29.809Z,78.59
2022-11-24T16:58:29.794Z,78.38
2022-11-24T16:59:29.816Z,78.69
2022-11-24T17:00:29.784Z,79.10
2022-11-24T17:01:30.033Z,79.34
2022-11-24T17:02:29.847Z,78.89
2022-11-24T17:03:29.751Z,79.41
2022-11-24T17:04:29.740Z,78.63
2022-11-24T17:05:29.735Z,78.72
2022-11-24T17:06:29.776Z,79.44
2022-11-24T17:07:29.771Z,79.44
2022-11-24T17:08:29.694Z,79.27
2022-11-24T17:09:29.701Z,79.58
2022-11-24T17:10:29.715Z,79.17
2022-11-24T17:11:29.753Z,79.58
2022-11-24T17:12:29.648Z,80.09
2022-11-24T17:13:29.666Z,80.19
2022-11-24T17:14:29.626Z,80.19
2022-11-24T17:15:36.573Z,80.54
2022-11-24T17:16:30.697Z,81.26
2022-11-24T17:17:29.595Z,80.85
2022-11-24T17:18:29.565Z,81.67
2022-11-24T17:19:30.192Z,82.22
2022-11-24T17:20:29.563Z,81.91
2022-11-24T17:21:29.539Z,81.91
2022-11-24T17:22:29.523Z,81.64
2022-11-24T17:23:29.513Z,82.12
2022-11-24T17:24:29.516Z,82.32
2022-11-24T17:25:29.506Z,82.32
2022-11-24T17:26:29.510Z,82.01
2022-11-24T17:27:29.482Z,83.04
2022-11-24T17:28:29.467Z,82.77
2022-11-24T17:29:29.496Z,82.46
2022-11-24T17:30:29.461Z,82.36
2022-11-24T17:31:29.778Z,82.36
2022-11-24T17:32:29.421Z,82.46
2022-11-24T17:33:29.398Z,82.46
2022-11-24T17:34:29.383Z,82.77
2022-11-24T17:35:29.405Z,82.56
2022-11-24T17:36:29.391Z,82.26
2022-11-24T17:37:29.374Z,82.97
2022-11-24T17:38:29.341Z,82.91
2022-11-24T17:39:29.335Z,83.07
2022-11-24T17:40:29.732Z,83.28
2022-11-24T17:41:29.309Z,83.28
2022-11-24T17:42:29.317Z,83.39
2022-11-24T17:43:29.302Z,83.39
2022-11-24T17:44:29.282Z,83.63
2022-11-24T17:45:29.566Z,83.90
2022-11-24T17:46:29.279Z,83.73
2022-11-24T17:47:29.252Z,83.94
2022-11-24T17:48:29.226Z,83.73
2022-11-24T17:49:29.247Z,83.63
2022-11-24T17:50:29.416Z,83.63
2022-11-24T17:51:29.253Z,83.63
2022-11-24T17:52:29.177Z,83.73
2022-11-24T17:53:29.195Z,83.53
2022-11-24T17:54:46.058Z,83.53
2022-11-24T17:55:30.153Z,83.42
2022-11-24T17:56:29.262Z,83.69
2022-11-24T17:57:29.140Z,84.04
2022-11-24T17:58:29.132Z,83.63
2022-11-24T17:59:29.108Z,83.63
2022-11-24T18:00:29.102Z,83.73
2022-11-24T18:01:29.160Z,83.98
2022-11-24T18:02:29.121Z,83.83
2022-11-24T18:03:29.055Z,83.63
2022-11-24T18:04:29.039Z,84.28
2022-11-24T18:05:29.051Z,84.08
2022-11-24T18:06:29.140Z,83.87
2022-11-24T18:07:29.069Z,84.18
2022-11-24T18:08:28.993Z,83.87
2022-11-24T18:09:28.987Z,83.46
2022-11-24T18:10:28.971Z,83.42
2022-11-24T18:11:31.330Z,83.77
2022-11-24T18:12:28.961Z,83.67
2022-11-24T18:13:54.997Z,83.87
2022-11-24T18:14:29.962Z,84.28
2022-11-24T18:15:28.919Z,83.61
2022-11-24T18:16:28.966Z,83.87
2022-11-24T18:17:28.911Z,83.77
2022-11-24T18:18:28.882Z,84.12
2022-11-24T18:19:28.873Z,84.32
2022-11-24T18:20:28.864Z,85.25
2022-11-24T18:21:28.864Z,85.25
2022-11-24T18:22:57.667Z,84.94
2022-11-24T18:23:29.845Z,84.94
2022-11-24T18:24:28.825Z,85.31
2022-11-24T18:25:28.817Z,85.04
2022-11-24T18:26:28.804Z,85.04
2022-11-24T18:27:28.807Z,84.74
2022-11-24T18:28:28.765Z,85.04
2022-11-24T18:29:28.757Z,84.32
2022-11-24T18:30:28.786Z,84.32
2022-11-24T18:31:28.773Z,84.32
2022-11-24T18:32:28.736Z,84.12
2022-11-24T18:33:28.727Z,84.22
2022-11-24T18:34:28.711Z,84.53
2022-11-24T18:35:28.704Z,84.32
2022-11-24T18:36:30.611Z,84.22
2022-11-24T18:37:28.680Z,84.32
2022-11-24T18:38:28.652Z,84.12
2022-11-24T18:39:28.673Z,84.32
2022-11-24T18:40:28.642Z,84.32
2022-11-24T18:41:28.653Z,84.84
2022-11-24T18:42:28.654Z,85.04
2022-11-24T18:43:28.612Z,84.53
2022-11-24T18:44:28.611Z,85.14
2022-11-24T18:45:28.631Z,84.94
2022-11-24T18:46:28.583Z,85.39
2022-11-24T18:47:28.553Z,85.39
2022-11-24T18:48:28.538Z,85.46
2022-11-24T18:49:28.585Z,85.55
2022-11-24T18:50:28.541Z,85.39
2022-11-24T18:51:28.520Z,85.49
2022-11-24T18:52:28.519Z,84.77
2022-11-24T18:53:28.485Z,84.56
2022-11-24T18:54:28.472Z,84.88
2022-11-24T18:55:28.765Z,84.98
2022-11-24T18:56:28.465Z,85.08
2022-11-24T18:57:28.439Z,85.39
2022-11-24T18:58:28.458Z,85.39
2022-11-24T18:59:28.420Z,85.28
2022-11-24T19:00:28.426Z,85.18
2022-11-24T19:01:28.523Z,85.08
2022-11-24T19:02:28.509Z,85.60
2022-11-24T19:03:28.384Z,85.49
2022-11-24T19:04:28.373Z,85.60
2022-11-24T19:05:28.361Z,85.28
2022-11-24T19:06:28.387Z,85.49
2022-11-24T19:07:28.359Z,85.22
2022-11-24T19:08:28.328Z,85.02
2022-11-24T19:09:28.298Z,85.53
2022-11-24T19:10:28.289Z,85.43
2022-11-24T19:11:28.393Z,85.22
2022-11-24T19:12:28.266Z,85.63
2022-11-24T19:13:28.251Z,85.74
2022-11-24T19:14:28.258Z,86.05
2022-11-24T19:15:28.242Z,86.15
2022-11-24T19:16:28.291Z,86.35
2022-11-24T19:17:28.219Z,86.15
2022-11-24T19:18:28.222Z,86.35
2022-11-24T19:19:28.197Z,86.35
2022-11-24T19:20:28.176Z,86.05
2022-11-24T19:21:28.273Z,86.46
2022-11-24T19:22:28.170Z,86.35
2022-11-24T19:23:28.151Z,86.25
2022-11-24T19:24:28.134Z,85.94
2022-11-24T19:25:28.129Z,86.35
2022-11-24T19:26:28.718Z,86.05
2022-11-24T19:27:28.198Z,87.38
2022-11-24T19:28:28.099Z,87.07
2022-11-24T19:29:28.077Z,87.22
2022-11-24T19:30:28.077Z,87.12
2022-11-24T19:31:28.148Z,87.32
2022-11-24T19:32:28.068Z,87.84
2022-11-24T19:33:28.027Z,87.79
2022-11-24T19:34:28.040Z,87.18
2022-11-24T19:35:28.016Z,87.22
2022-11-24T19:36:28.011Z,87.52
2022-11-24T19:37:28.008Z,87.18
2022-11-24T19:38:30.126Z,87.22
2022-11-24T19:39:27.959Z,87.01
2022-11-24T19:40:27.963Z,87.18
2022-11-24T19:41:27.952Z,86.91
2022-11-24T19:42:27.946Z,87.94
2022-11-24T19:43:27.916Z,87.90
2022-11-24T19:44:27.918Z,87.38
2022-11-24T19:45:27.938Z,87.32
2022-11-24T19:46:27.977Z,87.38
2022-11-24T19:47:27.866Z,87.32
2022-11-24T19:48:27.876Z,87.52
2022-11-24T19:49:27.850Z,87.63
2022-11-24T19:50:27.921Z,87.52
2022-11-24T19:51:27.822Z,87.42
2022-11-24T19:52:27.811Z,87.52
2022-11-24T19:53:27.808Z,87.73
2022-11-24T19:54:27.802Z,87.77
2022-11-24T19:55:27.796Z,87.63
2022-11-24T19:56:27.770Z,87.94
2022-11-24T19:57:27.770Z,87.22
2022-11-24T19:58:27.747Z,87.63
2022-11-24T19:59:27.748Z,87.42
2022-11-24T20:00:31.825Z,88.04
2022-11-24T20:01:27.804Z,88.24
2022-11-24T20:02:27.763Z,87.63
2022-11-24T20:03:27.698Z,88.04
2022-11-24T20:04:27.723Z,87.84
2022-11-24T20:05:27.664Z,87.87
2022-11-24T20:06:28.044Z,88.76
2022-11-24T20:07:27.660Z,87.69
2022-11-24T20:08:27.632Z,88.04
2022-11-24T20:09:27.629Z,88.35
2022-11-24T20:10:27.610Z,87.63
2022-11-24T20:11:27.593Z,88.14
2022-11-24T20:12:27.586Z,87.84
2022-11-24T20:13:27.588Z,87.42
2022-11-24T20:14:27.591Z,87.22
2022-11-24T20:15:27.550Z,88.04
2022-11-24T20:16:27.622Z,87.52
2022-11-24T20:17:27.544Z,88.04
2022-11-24T20:18:27.532Z,88.56
2022-11-24T20:19:27.562Z,88.14
2022-11-24T20:20:27.508Z,88.20
2022-11-24T20:21:27.485Z,88.14
2022-11-24T20:22:27.506Z,87.57
2022-11-24T20:23:27.470Z,88.24
2022-11-24T20:24:27.465Z,87.94
2022-11-24T20:25:27.455Z,87.63
2022-11-24T20:26:27.427Z,88.35
2022-11-24T20:27:27.411Z,87.94
2022-11-24T20:28:27.423Z,88.04
2022-11-24T20:29:27.403Z,87.98
2022-11-24T20:30:27.384Z,87.87
2022-11-24T20:31:27.547Z,87.77
2022-11-24T20:32:27.359Z,88.80
2022-11-24T20:33:27.363Z,88.70
2022-11-24T20:34:27.375Z,89.11
2022-11-24T20:35:27.323Z,88.74
2022-11-24T20:36:27.337Z,88.84
2022-11-24T20:37:27.314Z,89.05
2022-11-24T20:38:27.314Z,89.25
2022-11-24T20:39:27.327Z,89.36
2022-11-24T20:40:27.271Z,89.36
2022-11-24T20:41:27.268Z,89.46
2022-11-24T20:42:27.261Z,89.05
2022-11-24T20:43:27.234Z,89.46
2022-11-24T20:44:27.253Z,89.56
2022-11-24T20:45:27.262Z,89.15
2022-11-24T20:46:27.215Z,89.67
2022-11-24T20:47:27.189Z,89.67
2022-11-24T20:48:27.191Z,89.87
2022-11-24T20:49:27.236Z,89.83
2022-11-24T20:50:27.172Z,89.56
2022-11-24T20:51:27.156Z,89.36
2022-11-24T20:52:27.136Z,89.67
2022-11-24T20:53:27.117Z,89.36
2022-11-24T20:54:27.146Z,89.87
2022-11-24T20:55:27.109Z,89.36
2022-11-24T20:56:27.115Z,89.56
2022-11-24T20:57:27.073Z,89.25
2022-11-24T20:58:27.079Z,89.56
2022-11-24T20:59:27.071Z,90.18
2022-11-24T21:00:27.056Z,89.77
2022-11-24T21:01:27.087Z,90.28
2022-11-24T21:02:27.158Z,89.97
2022-11-24T21:03:27.015Z,90.28